Patrick Air Force Base
KCOF : now visible

Airfield :











YOU CAN JOIN US ON...

 
LOGIN :

Register | Disclaimer

   EN    FR    IT 

 









Legend :    VFR   Marginal VFR   IFR   Intensive IFR   Very Intensive IFR
Visi :
Ceiling :
>= 8 km
>= 3000ft
5 to 8 km
1000 to 3000 ft
1500m to 5 km
500 to 1000 ft
800 to 1500m
200 to 500 ft
< 800m
< 200 ft
Symbols :   Thunderstorms  Fog  Heavy snow  Heavy precipitations  Wind > 20 kt






- Airport Elevation : 8 ft


KCOF - Patrick Air Force Base

CURRENT METAR :
  • 110656Z AUTO 18004KT 10SM CLR 28/23 A3002 RMK AO2 SLP170 T02820229 $

EXPIRED METARs :
  • 110556Z AUTO 15004KT 10SM CLR 28/23 A3003 RMK AO2 SLP174 T02840233 10291 20283 57009 $
  • 110456Z AUTO 14003KT 10SM FEW020 28/23 A3003 RMK AO2 SLP174 T02840233 403150269 $

TAF TAF KCOF
Valid from the 11 at 02:00 until the 12 at 08:00 UTC


110200Z 1102/1208 16005KT 9999 FEW030 SCT200 QNH2999INS
BECMG 1115/1116 12006KT 9999 VCSH FEW025 SCT100 QNH3003INS
BECMG 1120/1121 16006KT 9999 NSW SCT080 SCT200 QNH2998INS TX32/1118Z TN26/1110Z LAST NO AMDS AFT 1104 NEXT 1110
KZMA FIR / North America



MET'MAP, your aeronautical weather chart ! - Copyright ORBIFLY December 2007 - Disclaimer

ORBIFLY MET'MAP TEAM :

Programming & Development : Alexandra Zaïnal
Concept & original design : Baudouin d'Aumeries
Assistance for programming : Marc-Olivier Méhu
Technical & hardware support : Manuel Goepfert

Contact : metmap@orbifly.com




SOURCES & CREDITS :

   NOAA       Earth
Advisory